Time;durP1;ratioP1;P1;durP2;ratioP2;P2;SDS_P1;SDS_P2;PMS_P1;PMS_P2;Temp;Humidity;BMP_temperature;BMP_pressure;BME280_temperature;BME280_humidity;BME280_pressure;Samples;Min_cycle;Max_cycle;Signal;HPM_P1;HPM_P2
2022/08/22 00:00:48;;;;;;;5.30;4.20;;;16.00;92.60;;;;;;4998711;28;20447;-65
2022/08/22 00:03:25;;;;;;;5.77;4.20;;;16.00;92.80;;;;;;4992818;28;20443;-64
2022/08/22 00:06:05;;;;;;;6.80;5.07;;;15.90;92.80;;;;;;5007349;28;20825;-65
2022/08/22 00:08:43;;;;;;;5.70;4.47;;;15.90;92.90;;;;;;4998466;28;20930;-64
2022/08/22 00:11:17;;;;;;;5.50;4.70;;;15.90;93.20;;;;;;4993037;28;20534;-65
2022/08/22 00:13:54;;;;;;;5.43;4.37;;;15.90;93.20;;;;;;5006955;28;20442;-65
2022/08/22 00:16:29;;;;;;;5.60;4.37;;;15.90;93.20;;;;;;5012317;28;21103;-64
2022/08/22 00:19:06;;;;;;;5.80;4.30;;;15.90;93.00;;;;;;4997121;28;20454;-64
2022/08/22 00:21:44;;;;;;;5.73;5.13;;;15.80;92.70;;;;;;5012295;28;20445;-65
2022/08/22 00:24:21;;;;;;;7.33;4.83;;;15.80;93.20;;;;;;4994699;28;20838;-64
2022/08/22 00:26:54;;;;;;;5.60;5.00;;;15.80;93.10;;;;;;4992864;28;20949;-64
2022/08/22 00:29:26;;;;;;;6.57;5.57;;;15.80;93.20;;;;;;5010344;28;20431;-65
2022/08/22 00:32:04;;;;;;;9.60;4.30;;;15.80;93.10;;;;;;5001032;28;20444;-64
2022/08/22 00:34:36;;;;;;;5.93;4.20;;;15.80;93.30;;;;;;4992706;28;20473;-64
2022/08/22 00:37:08;;;;;;;6.27;4.93;;;15.80;93.00;;;;;;5003972;28;20523;-66
2022/08/22 00:39:43;;;;;;;4.90;3.77;;;15.70;93.00;;;;;;5012723;28;20446;-64
2022/08/22 00:42:43;;;;;;;5.27;4.30;;;15.70;93.00;;;;;;4999974;28;20806;-65
2022/08/22 00:45:38;;;;;;;6.20;4.67;;;15.60;93.00;;;;;;5008320;28;20487;-66
2022/08/22 00:48:46;;;;;;;4.93;4.43;;;15.60;92.90;;;;;;5002710;28;20447;-64
2022/08/22 00:51:44;;;;;;;4.57;4.17;;;15.60;92.90;;;;;;4992818;28;20531;-64
2022/08/22 00:54:23;;;;;;;5.17;4.23;;;15.60;92.80;;;;;;4986225;28;20514;-65
2022/08/22 00:57:17;;;;;;;6.43;4.37;;;15.50;92.90;;;;;;5012235;28;20447;-64
2022/08/22 01:00:04;;;;;;;5.03;4.30;;;15.50;92.90;;;;;;4973375;28;20440;-64
2022/08/22 01:02:48;;;;;;;8.73;4.70;;;15.50;92.90;;;;;;4976311;28;20434;-65
2022/08/22 01:05:34;;;;;;;6.27;5.00;;;15.40;93.00;;;;;;4993790;28;20449;-66
2022/08/22 01:08:20;;;;;;;6.20;4.33;;;15.40;93.50;;;;;;5003231;28;20438;-64
2022/08/22 01:11:07;;;;;;;7.50;4.90;;;15.40;93.60;;;;;;5015653;28;20438;-65
2022/08/22 01:13:55;;;;;;;5.63;4.50;;;15.40;93.70;;;;;;5004641;28;20450;-64
2022/08/22 01:16:34;;;;;;;8.00;6.17;;;15.40;93.90;;;;;;4996023;28;20487;-65
2022/08/22 01:19:26;;;;;;;7.03;5.23;;;15.30;93.90;;;;;;5009813;28;20439;-64
2022/08/22 01:22:21;;;;;;;7.40;5.33;;;15.30;94.10;;;;;;5015587;28;20441;-65
2022/08/22 01:25:26;;;;;;;6.23;4.60;;;15.30;94.50;;;;;;4951067;28;20808;-64
2022/08/22 01:28:37;;;;;;;7.43;4.90;;;15.20;94.50;;;;;;4972965;28;20427;-65
2022/08/22 01:31:46;;;;;;;7.00;4.80;;;15.10;94.70;;;;;;5015397;28;20438;-65
2022/08/22 01:34:41;;;;;;;6.33;4.33;;;15.10;94.90;;;;;;5000644;28;20858;-65
2022/08/22 01:37:40;;;;;;;6.63;4.80;;;15.10;94.90;;;;;;4995863;28;20443;-65
2022/08/22 01:40:40;;;;;;;5.63;3.80;;;15.20;94.80;;;;;;4973564;28;20516;-66
2022/08/22 01:43:15;;;;;;;7.93;3.80;;;15.10;94.30;;;;;;4983773;28;20438;-65
2022/08/22 01:45:58;;;;;;;4.50;3.37;;;15.00;94.20;;;;;;5013366;28;20448;-65
2022/08/22 01:48:34;;;;;;;6.53;4.43;;;15.00;93.80;;;;;;5009005;28;20443;-64
2022/08/22 01:51:14;;;;;;;5.70;4.77;;;14.90;94.20;;;;;;4995485;28;20451;-64
2022/08/22 01:53:48;;;;;;;6.43;5.10;;;14.90;94.50;;;;;;5003158;28;20542;-64
2022/08/22 01:56:18;;;;;;;6.17;4.63;;;14.80;94.40;;;;;;5015446;28;21081;-65
2022/08/22 01:58:55;;;;;;;8.13;5.53;;;14.90;94.40;;;;;;5015405;28;20485;-64
2022/08/22 02:01:32;;;;;;;10.33;7.37;;;14.80;94.60;;;;;;5015155;28;20533;-64
2022/08/22 02:04:03;;;;;;;8.90;5.70;;;14.80;94.80;;;;;;5015124;28;20481;-64
2022/08/22 02:06:41;;;;;;;6.73;4.90;;;14.80;94.80;;;;;;5015382;28;20478;-64
2022/08/22 02:09:14;;;;;;;8.13;6.07;;;14.80;94.40;;;;;;5015254;28;20829;-65
2022/08/22 02:11:49;;;;;;;7.53;4.80;;;14.80;94.20;;;;;;5015205;28;20443;-65
2022/08/22 02:14:29;;;;;;;7.90;5.83;;;14.80;94.00;;;;;;5015083;28;20478;-64
2022/08/22 02:17:10;;;;;;;6.40;4.73;;;14.80;94.40;;;;;;5014542;28;20486;-64
2022/08/22 02:19:44;;;;;;;8.00;5.30;;;14.70;94.80;;;;;;5015206;28;20527;-64
2022/08/22 02:22:29;;;;;;;5.80;5.10;;;14.70;95.30;;;;;;5014870;28;20442;-64
2022/08/22 02:25:05;;;;;;;5.03;4.50;;;14.70;95.20;;;;;;5014830;28;20565;-64
2022/08/22 02:27:37;;;;;;;6.60;5.10;;;14.60;94.70;;;;;;5014716;28;20921;-64
2022/08/22 02:30:08;;;;;;;4.73;4.00;;;14.60;94.20;;;;;;5014823;28;20496;-64
2022/08/22 02:32:49;;;;;;;5.00;4.20;;;14.60;94.30;;;;;;5014812;28;20859;-65
2022/08/22 02:35:25;;;;;;;4.37;3.40;;;14.60;94.40;;;;;;5014785;28;20474;-65
2022/08/22 02:38:04;;;;;;;5.07;3.67;;;14.60;94.50;;;;;;5014782;28;20438;-64
2022/08/22 02:40:38;;;;;;;4.60;3.30;;;14.50;94.00;;;;;;5014796;28;20496;-65
2022/08/22 02:43:13;;;;;;;5.60;4.00;;;14.50;94.20;;;;;;5014677;28;20466;-64
2022/08/22 02:45:45;;;;;;;8.37;4.13;;;14.50;94.30;;;;;;5014718;28;20453;-66
2022/08/22 02:48:22;;;;;;;4.93;3.53;;;14.40;94.20;;;;;;5014711;28;20518;-65
2022/08/22 02:50:55;;;;;;;5.50;3.73;;;14.40;93.90;;;;;;5014608;28;20493;-64
2022/08/22 02:53:33;;;;;;;4.43;3.93;;;14.40;93.80;;;;;;5014071;28;20926;-64
2022/08/22 02:56:05;;;;;;;6.07;4.47;;;14.40;94.20;;;;;;5014377;28;20544;-65
2022/08/22 02:58:44;;;;;;;6.00;3.83;;;14.30;94.40;;;;;;5014525;28;20446;-64
2022/08/22 03:01:35;;;;;;;5.27;4.20;;;14.30;94.60;;;;;;5014187;28;20473;-65
2022/08/22 03:04:44;;;;;;;5.50;4.20;;;14.30;94.90;;;;;;5014321;28;20492;-64
2022/08/22 03:07:23;;;;;;;5.00;3.70;;;14.30;95.10;;;;;;5014015;28;20439;-64
2022/08/22 03:10:00;;;;;;;4.73;4.07;;;14.20;95.60;;;;;;5014040;28;20439;-65
2022/08/22 03:12:32;;;;;;;4.37;3.30;;;14.00;95.70;;;;;;5014037;28;20481;-65
2022/08/22 03:15:07;;;;;;;5.00;3.67;;;14.00;96.00;;;;;;5014121;28;20517;-64
2022/08/22 03:17:47;;;;;;;7.97;3.57;;;14.00;96.20;;;;;;5014148;28;20526;-65
2022/08/22 03:20:22;;;;;;;5.43;4.30;;;14.00;96.10;;;;;;5013962;28;20485;-64
2022/08/22 03:22:53;;;;;;;5.80;4.37;;;14.10;96.20;;;;;;5013851;28;20488;-64
2022/08/22 03:25:41;;;;;;;6.83;4.20;;;14.10;96.30;;;;;;5013670;28;20470;-64
2022/08/22 03:28:13;;;;;;;5.30;3.77;;;14.20;96.40;;;;;;5012765;28;20474;-65
2022/08/22 03:30:44;;;;;;;5.73;4.50;;;14.20;96.30;;;;;;5013774;28;20853;-66
2022/08/22 03:33:18;;;;;;;8.67;4.60;;;14.20;96.40;;;;;;5013934;28;20446;-64
2022/08/22 03:36:02;;;;;;;6.27;3.70;;;14.20;96.40;;;;;;5013676;28;20524;-65
2022/08/22 03:38:43;;;;;;;7.10;4.30;;;14.20;96.30;;;;;;5013689;28;20792;-64
2022/08/22 03:41:35;;;;;;;4.50;3.70;;;14.10;96.30;;;;;;5013642;28;20434;-64
2022/08/22 03:44:31;;;;;;;8.40;4.93;;;14.00;96.30;;;;;;5001833;28;20443;-65
2022/08/22 03:47:19;;;;;;;5.10;3.00;;;13.90;96.50;;;;;;4993231;28;20965;-64
2022/08/22 03:50:18;;;;;;;6.87;4.57;;;13.80;96.50;;;;;;5004405;28;20929;-64
2022/08/22 03:53:09;;;;;;;5.63;4.50;;;13.90;96.40;;;;;;5013253;28;20443;-64
2022/08/22 03:56:12;;;;;;;4.57;3.50;;;13.80;96.70;;;;;;5012331;28;20443;-64
2022/08/22 03:59:13;;;;;;;5.27;4.07;;;13.80;96.60;;;;;;5009423;28;20771;-64
2022/08/22 04:02:16;;;;;;;7.00;3.63;;;13.90;96.70;;;;;;4999032;28;20430;-64
2022/08/22 04:05:23;;;;;;;4.30;3.43;;;13.90;96.40;;;;;;5012847;28;20443;-64
2022/08/22 04:08:10;;;;;;;4.90;4.43;;;13.90;96.20;;;;;;4997383;28;20450;-65
2022/08/22 04:10:51;;;;;;;5.43;4.07;;;13.90;96.20;;;;;;4984306;28;20498;-64
2022/08/22 04:13:49;;;;;;;6.23;3.70;;;13.90;96.20;;;;;;4988384;28;20443;-65
2022/08/22 04:17:06;;;;;;;6.10;4.53;;;14.00;96.40;;;;;;4989424;28;20850;-65
2022/08/22 04:20:20;;;;;;;4.90;4.00;;;14.00;96.60;;;;;;4979532;28;20549;-65
2022/08/22 04:23:27;;;;;;;5.50;3.80;;;14.10;96.50;;;;;;4990264;28;20431;-65
2022/08/22 04:25:59;;;;;;;8.67;4.10;;;14.10;96.40;;;;;;4957771;28;20830;-65
2022/08/22 04:28:34;;;;;;;5.23;3.77;;;14.10;96.20;;;;;;4991277;28;20443;-65
2022/08/22 04:31:08;;;;;;;4.97;4.00;;;14.10;96.10;;;;;;4993186;28;20435;-65
2022/08/22 04:33:44;;;;;;;8.23;4.13;;;14.00;96.00;;;;;;4991637;28;20805;-66
2022/08/22 04:36:19;;;;;;;5.40;4.27;;;13.90;96.10;;;;;;4992621;28;20566;-65
2022/08/22 04:38:53;;;;;;;6.73;4.67;;;13.90;95.60;;;;;;4991667;28;20442;-65
2022/08/22 04:41:24;;;;;;;6.97;3.63;;;13.80;95.60;;;;;;4994213;28;20444;-64
2022/08/22 04:43:57;;;;;;;6.50;3.80;;;13.80;95.80;;;;;;4996022;28;20451;-64
2022/08/22 04:46:32;;;;;;;7.47;4.77;;;13.80;95.70;;;;;;4994866;28;20435;-67
2022/08/22 04:49:06;;;;;;;5.60;4.40;;;13.70;95.80;;;;;;4994546;28;20431;-64
2022/08/22 04:51:37;;;;;;;6.90;4.73;;;13.60;96.10;;;;;;4994998;28;20498;-64
2022/08/22 04:54:17;;;;;;;6.13;4.57;;;13.70;96.30;;;;;;4995413;28;20435;-64
2022/08/22 04:56:54;;;;;;;5.23;4.50;;;13.70;96.50;;;;;;4994509;28;20518;-68
2022/08/22 04:59:23;;;;;;;4.93;4.43;;;13.60;96.80;;;;;;4994803;28;20420;-64
2022/08/22 05:01:54;;;;;;;5.40;4.30;;;13.70;96.80;;;;;;4994897;28;20494;-65
2022/08/22 05:04:27;;;;;;;5.63;4.27;;;13.60;97.20;;;;;;4994535;28;20482;-64
2022/08/22 05:07:04;;;;;;;7.00;4.40;;;13.60;97.20;;;;;;4996609;28;20451;-65
2022/08/22 05:09:36;;;;;;;9.83;4.37;;;13.70;97.30;;;;;;4994197;28;20450;-65
2022/08/22 05:12:08;;;;;;;5.00;3.90;;;13.80;97.10;;;;;;4994774;28;20470;-65
2022/08/22 05:14:41;;;;;;;6.10;4.57;;;13.90;97.10;;;;;;4994611;28;20440;-64
2022/08/22 05:17:12;;;;;;;8.63;4.60;;;13.90;97.30;;;;;;4992445;28;20483;-64
2022/08/22 05:19:45;;;;;;;5.43;4.40;;;14.00;97.20;;;;;;4994575;28;20427;-65
2022/08/22 05:22:17;;;;;;;12.30;4.70;;;14.10;97.50;;;;;;4992605;28;20834;-65
2022/08/22 05:24:47;;;;;;;6.70;4.60;;;14.10;97.30;;;;;;4994819;28;20577;-64
2022/08/22 05:27:19;;;;;;;4.97;4.47;;;14.20;97.40;;;;;;4993787;28;20450;-64
2022/08/22 05:29:50;;;;;;;6.00;4.07;;;14.30;98.00;;;;;;4993940;28;20831;-65
2022/08/22 05:32:24;;;;;;;7.10;4.80;;;14.30;97.60;;;;;;4993783;28;20444;-66
2022/08/22 05:34:58;;;;;;;7.60;5.30;;;14.40;97.70;;;;;;4994280;28;20443;-64
2022/08/22 05:37:30;;;;;;;9.70;4.43;;;14.50;97.90;;;;;;4993357;28;20467;-65
2022/08/22 05:40:00;;;;;;;5.87;4.87;;;14.60;98.00;;;;;;4994518;28;20436;-64
2022/08/22 05:42:30;;;;;;;7.33;4.20;;;14.70;98.00;;;;;;4996590;28;20526;-65
2022/08/22 05:45:00;;;;;;;5.30;4.17;;;14.90;98.00;;;;;;4994234;28;20452;-64
2022/08/22 05:47:35;;;;;;;5.87;5.27;;;14.90;97.90;;;;;;4993525;28;20440;-64
2022/08/22 05:50:07;;;;;;;6.03;5.20;;;15.10;97.90;;;;;;4989915;28;20789;-65
2022/08/22 05:52:55;;;;;;;8.03;4.83;;;15.20;97.80;;;;;;4993073;28;20445;-64
2022/08/22 05:55:27;;;;;;;6.60;4.33;;;15.30;98.10;;;;;;4993167;28;20789;-65
2022/08/22 05:58:26;;;;;;;6.70;4.77;;;15.40;97.60;;;;;;4993787;28;21417;-65
2022/08/22 06:01:01;;;;;;;4.30;3.43;;;15.50;97.60;;;;;;4993327;28;20445;-65
2022/08/22 06:03:35;;;;;;;5.20;4.20;;;15.60;98.00;;;;;;4993855;28;20454;-65
2022/08/22 06:06:13;;;;;;;6.60;4.17;;;15.80;97.80;;;;;;4993573;28;20447;-67
2022/08/22 06:08:45;;;;;;;5.70;4.57;;;15.90;98.00;;;;;;4994789;28;20435;-66
2022/08/22 06:11:18;;;;;;;9.57;4.90;;;16.10;97.70;;;;;;4994706;28;20475;-65
2022/08/22 06:13:50;;;;;;;5.83;4.27;;;16.20;97.60;;;;;;4995707;28;20534;-65
2022/08/22 06:16:22;;;;;;;5.67;3.53;;;16.40;97.80;;;;;;5005074;28;20481;-64
2022/08/22 06:18:51;;;;;;;9.63;4.70;;;16.70;97.30;;;;;;5005937;28;20471;-65
2022/08/22 06:21:26;;;;;;;6.40;4.23;;;16.90;97.00;;;;;;4995534;28;20506;-64
2022/08/22 06:23:57;;;;;;;5.67;5.03;;;17.10;96.50;;;;;;5014246;28;20483;-65
2022/08/22 06:26:27;;;;;;;6.87;4.37;;;17.30;95.90;;;;;;5008309;28;20922;-64
2022/08/22 06:28:59;;;;;;;6.23;5.00;;;17.50;95.30;;;;;;4994878;28;20486;-65
2022/08/22 06:31:31;;;;;;;8.30;4.70;;;17.60;95.20;;;;;;5012120;28;20474;-64
2022/08/22 06:34:03;;;;;;;5.40;4.70;;;17.90;94.90;;;;;;5014340;28;20815;-65
2022/08/22 06:36:35;;;;;;;5.87;4.30;;;18.00;94.30;;;;;;5014392;28;20561;-64
2022/08/22 06:39:15;;;;;;;7.10;4.77;;;18.20;93.60;;;;;;5014926;28;20439;-65
2022/08/22 06:41:47;;;;;;;5.20;4.47;;;18.40;93.30;;;;;;5014565;28;20896;-65
2022/08/22 06:44:19;;;;;;;5.47;4.40;;;18.50;93.30;;;;;;5014696;28;20493;-66
2022/08/22 06:46:49;;;;;;;6.73;4.20;;;18.60;92.40;;;;;;5014623;28;20477;-65
2022/08/22 06:49:17;;;;;;;4.63;4.10;;;18.60;92.50;;;;;;5014827;28;20475;-65
2022/08/22 06:51:47;;;;;;;7.13;4.40;;;18.60;91.80;;;;;;5014721;28;20478;-65
2022/08/22 06:54:18;;;;;;;5.63;3.80;;;18.70;92.00;;;;;;5014196;28;20835;-66
2022/08/22 06:56:48;;;;;;;7.33;4.57;;;18.80;92.10;;;;;;5014380;28;20506;-65
2022/08/22 06:59:18;;;;;;;6.10;4.10;;;18.90;91.90;;;;;;5014421;28;20767;-65
2022/08/22 07:01:51;;;;;;;5.73;4.43;;;18.90;91.60;;;;;;5014106;28;20435;-65
2022/08/22 07:04:22;;;;;;;6.53;4.33;;;19.00;91.70;;;;;;5014025;28;20861;-65
2022/08/22 07:06:51;;;;;;;5.43;3.80;;;19.10;91.60;;;;;;5014125;28;20525;-65
2022/08/22 07:09:24;;;;;;;6.03;3.27;;;19.30;91.90;;;;;;5013785;28;20947;-65
2022/08/22 07:11:52;;;;;;;5.83;4.80;;;19.40;91.60;;;;;;5013960;28;20474;-65
2022/08/22 07:14:26;;;;;;;4.80;3.60;;;19.50;90.90;;;;;;5014156;28;20522;-65
2022/08/22 07:16:56;;;;;;;6.70;4.43;;;19.60;91.00;;;;;;5013904;28;20513;-65
2022/08/22 07:19:26;;;;;;;5.13;3.93;;;19.70;90.70;;;;;;5013845;28;20486;-65
2022/08/22 07:21:55;;;;;;;4.20;3.30;;;19.80;90.50;;;;;;5013844;28;20487;-65
2022/08/22 07:24:26;;;;;;;4.70;3.87;;;19.90;90.90;;;;;;5013425;28;20479;-65
2022/08/22 07:27:07;;;;;;;5.40;4.07;;;20.10;90.20;;;;;;5013817;28;20456;-65
2022/08/22 07:29:43;;;;;;;7.87;4.20;;;20.20;90.00;;;;;;5014093;28;20433;-65
2022/08/22 07:32:14;;;;;;;6.67;4.30;;;20.30;89.10;;;;;;5014000;28;20443;-65
2022/08/22 07:35:00;;;;;;;4.57;3.77;;;20.30;90.30;;;;;;5013778;28;21093;-65
2022/08/22 07:37:41;;;;;;;6.23;4.50;;;20.50;89.10;;;;;;5013311;28;20486;-65
2022/08/22 07:40:17;;;;;;;4.80;3.87;;;20.70;88.90;;;;;;5013715;28;20448;-66
2022/08/22 07:42:49;;;;;;;5.77;3.97;;;20.90;89.90;;;;;;5013519;28;20939;-65
2022/08/22 07:45:20;;;;;;;5.07;4.30;;;21.00;90.30;;;;;;5013673;28;20485;-65
2022/08/22 07:48:01;;;;;;;5.17;4.10;;;21.30;90.60;;;;;;5013554;28;20530;-65
2022/08/22 07:50:32;;;;;;;5.00;4.20;;;21.70;90.00;;;;;;5013461;28;20475;-65
2022/08/22 07:53:07;;;;;;;4.33;3.60;;;22.00;87.80;;;;;;5013531;28;20477;-65
2022/08/22 07:55:38;;;;;;;5.80;4.00;;;22.30;89.80;;;;;;5013572;28;20524;-65
2022/08/22 07:58:07;;;;;;;6.47;3.70;;;22.50;86.80;;;;;;5013535;28;21016;-66
2022/08/22 08:00:41;;;;;;;4.50;3.40;;;22.70;87.50;;;;;;5013493;28;20446;-65
2022/08/22 08:03:10;;;;;;;9.83;3.73;;;22.90;84.10;;;;;;5013153;28;20534;-66
2022/08/22 08:05:40;;;;;;;3.87;3.33;;;23.20;86.30;;;;;;5013256;28;20949;-65
2022/08/22 08:08:14;;;;;;;4.77;3.50;;;23.50;86.30;;;;;;5013449;28;20529;-66
2022/08/22 08:10:41;;;;;;;4.10;3.33;;;23.90;86.20;;;;;;5013514;28;20438;-65
2022/08/22 08:13:13;;;;;;;4.43;2.93;;;24.30;86.10;;;;;;5013288;28;20481;-67
2022/08/22 08:15:44;;;;;;;5.40;3.67;;;24.70;80.10;;;;;;5017838;28;20513;-66
2022/08/22 08:18:18;;;;;;;4.23;3.30;;;25.10;76.20;;;;;;5019342;28;20973;-65
2022/08/22 08:20:50;;;;;;;7.40;3.60;;;25.40;80.00;;;;;;5019562;28;20445;-65
2022/08/22 08:23:19;;;;;;;4.00;3.03;;;25.70;77.70;;;;;;5019454;28;20446;-67
2022/08/22 08:25:59;;;;;;;5.90;3.60;;;26.10;75.00;;;;;;5019541;28;20940;-65
2022/08/22 08:28:34;;;;;;;5.93;3.20;;;26.40;71.90;;;;;;5019815;28;20439;-65
2022/08/22 08:31:07;;;;;;;4.53;3.33;;;26.60;68.40;;;;;;5019491;28;20449;-65
2022/08/22 08:33:38;;;;;;;5.03;3.50;;;26.70;66.70;;;;;;5019949;28;20501;-65
2022/08/22 08:36:10;;;;;;;4.50;3.43;;;27.00;66.40;;;;;;5019485;28;20449;-66
2022/08/22 08:38:45;;;;;;;4.17;2.47;;;27.40;66.00;;;;;;5019350;28;20486;-67
2022/08/22 08:41:38;;;;;;;5.60;3.10;;;27.60;63.60;;;;;;5019697;28;20446;-66
2022/08/22 08:44:16;;;;;;;6.63;3.63;;;28.00;59.40;;;;;;5019757;28;20517;-66
2022/08/22 08:47:04;;;;;;;6.33;3.60;;;28.50;59.60;;;;;;5019707;28;20457;-65
2022/08/22 08:49:44;;;;;;;4.77;3.13;;;28.80;58.60;;;;;;5019521;28;20439;-65
2022/08/22 08:52:25;;;;;;;5.93;3.23;;;29.20;60.40;;;;;;5019715;28;20474;-66
2022/08/22 08:55:09;;;;;;;4.90;2.73;;;29.50;55.90;;;;;;5019315;28;20514;-66
2022/08/22 08:57:48;;;;;;;5.47;3.70;;;29.80;55.70;;;;;;5018957;28;20478;-67
2022/08/22 09:00:18;;;;;;;5.13;3.20;;;30.00;52.20;;;;;;5019339;28;20446;-65
2022/08/22 09:02:54;;;;;;;26.20;3.90;;;30.10;54.60;;;;;;5019147;28;20518;-66
2022/08/22 09:05:51;;;;;;;8.30;3.10;;;30.30;52.80;;;;;;5019051;28;20438;-65
2022/08/22 09:09:02;;;;;;;4.80;3.17;;;30.50;51.50;;;;;;5019174;28;20438;-65
2022/08/22 09:12:07;;;;;;;6.40;3.47;;;30.70;46.00;;;;;;5013499;28;20429;-66
2022/08/22 09:15:05;;;;;;;3.70;3.17;;;30.60;46.20;;;;;;5002380;28;20513;-65
2022/08/22 09:18:19;;;;;;;4.60;3.17;;;30.70;47.60;;;;;;4998664;28;20540;-65
2022/08/22 09:20:56;;;;;;;3.90;3.27;;;31.00;46.80;;;;;;4956812;28;20512;-65
2022/08/22 09:23:44;;;;;;;3.90;3.00;;;31.30;44.10;;;;;;4996566;28;20439;-66
2022/08/22 09:26:16;;;;;;;4.97;3.60;;;31.40;45.10;;;;;;4998895;28;20482;-69
2022/08/22 09:28:53;;;;;;;4.50;3.33;;;31.50;45.90;;;;;;4996147;28;20600;-65
2022/08/22 09:31:33;;;;;;;4.13;3.73;;;31.60;45.90;;;;;;4997409;28;20789;-65
2022/08/22 09:34:08;;;;;;;5.87;4.30;;;31.80;43.80;;;;;;4995853;28;20493;-65
2022/08/22 09:36:55;;;;;;;4.87;4.33;;;31.80;42.50;;;;;;4997325;28;20526;-66
2022/08/22 09:39:27;;;;;;;5.87;4.00;;;32.00;41.20;;;;;;4997081;28;20479;-65
2022/08/22 09:42:01;;;;;;;4.73;3.47;;;31.90;40.80;;;;;;4997943;28;20533;-65
2022/08/22 09:44:50;;;;;;;5.10;3.60;;;31.90;42.50;;;;;;4998155;28;20619;-65
2022/08/22 09:47:26;;;;;;;4.10;3.70;;;32.00;41.30;;;;;;5004525;28;20443;-65
2022/08/22 09:50:09;;;;;;;6.70;3.83;;;32.10;41.00;;;;;;5000407;28;20448;-65
2022/08/22 09:52:53;;;;;;;4.40;4.00;;;32.20;41.10;;;;;;4996504;28;20459;-66
2022/08/22 09:55:37;;;;;;;4.57;3.80;;;32.10;36.80;;;;;;4993282;28;20450;-65
2022/08/22 09:58:13;;;;;;;4.33;3.93;;;31.60;38.80;;;;;;4999898;28;21323;-66
2022/08/22 10:00:49;;;;;;;3.80;3.40;;;31.40;39.40;;;;;;5000970;28;20478;-66
2022/08/22 10:03:24;;;;;;;4.00;3.60;;;31.50;41.10;;;;;;4998830;28;20477;-66
2022/08/22 10:05:56;;;;;;;3.93;3.40;;;31.60;40.90;;;;;;4999218;28;20467;-65
2022/08/22 10:08:36;;;;;;;3.70;3.30;;;31.70;40.80;;;;;;5001048;28;20942;-65
2022/08/22 10:11:18;;;;;;;5.37;4.10;;;32.00;40.50;;;;;;5003075;28;20779;-65
2022/08/22 10:13:55;;;;;;;4.43;3.80;;;32.10;40.30;;;;;;5000487;28;20446;-65
2022/08/22 10:16:39;;;;;;;4.10;3.00;;;32.30;38.40;;;;;;5000820;28;20450;-65
2022/08/22 10:19:16;;;;;;;3.90;3.50;;;32.30;36.20;;;;;;5002478;28;21010;-66
2022/08/22 10:22:07;;;;;;;4.63;3.63;;;32.20;35.10;;;;;;4999197;28;20481;-66
2022/08/22 10:24:47;;;;;;;4.67;4.10;;;32.20;34.80;;;;;;5001178;28;20471;-66
2022/08/22 10:27:18;;;;;;;4.10;3.70;;;32.10;35.90;;;;;;4999782;28;20447;-65
2022/08/22 10:30:03;;;;;;;4.60;4.20;;;31.80;34.90;;;;;;5001006;28;20458;-65
2022/08/22 10:32:38;;;;;;;7.07;4.40;;;31.40;34.70;;;;;;5001544;28;20466;-65
2022/08/22 10:35:15;;;;;;;5.63;4.00;;;31.00;35.20;;;;;;5004470;28;20475;-66
2022/08/22 10:37:56;;;;;;;3.43;3.13;;;30.80;36.70;;;;;;5001407;28;20483;-65
2022/08/22 10:40:28;;;;;;;5.07;3.20;;;30.70;37.70;;;;;;5002276;28;20490;-65
2022/08/22 10:43:01;;;;;;;4.90;3.27;;;30.70;39.80;;;;;;5002924;28;20451;-65
2022/08/22 10:45:32;;;;;;;5.57;3.73;;;30.70;41.50;;;;;;5005614;28;20972;-65
2022/08/22 10:48:37;;;;;;;4.40;4.00;;;30.60;40.30;;;;;;5001901;28;20439;-65
2022/08/22 10:51:12;;;;;;;4.17;3.13;;;30.50;40.70;;;;;;5003197;28;21001;-65
2022/08/22 10:54:07;;;;;;;6.47;4.20;;;30.30;39.60;;;;;;5001559;28;20482;-66
2022/08/22 10:56:41;;;;;;;5.27;3.43;;;30.00;39.50;;;;;;5001514;28;20479;-65
2022/08/22 10:59:21;;;;;;;6.00;4.13;;;29.70;39.40;;;;;;5002385;28;20483;-65
2022/08/22 11:01:57;;;;;;;3.87;3.43;;;29.50;39.60;;;;;;5000828;28;20443;-65
2022/08/22 11:04:39;;;;;;;9.77;3.90;;;29.50;39.90;;;;;;5003831;28;20485;-66
2022/08/22 11:07:19;;;;;;;5.27;3.57;;;29.60;39.20;;;;;;5006545;28;20534;-66
2022/08/22 11:09:54;;;;;;;5.23;3.13;;;29.60;40.80;;;;;;5001730;28;20467;-66
2022/08/22 11:12:31;;;;;;;5.73;3.57;;;29.70;42.20;;;;;;5004281;28;20446;-65
2022/08/22 11:15:07;;;;;;;4.57;3.17;;;29.90;42.30;;;;;;5003782;28;21025;-65
2022/08/22 11:21:00;;;;;;;5.50;3.57;;;30.30;41.00;;;;;;5003137;28;20427;-65
2022/08/22 11:23:41;;;;;;;7.10;3.30;;;30.60;41.20;;;;;;4999539;28;20439;-70
2022/08/22 11:26:29;;;;;;;3.63;3.20;;;30.80;40.30;;;;;;4998441;28;20435;-66
2022/08/22 11:29:35;;;;;;;4.10;3.40;;;31.00;39.70;;;;;;4995273;28;20459;-65
2022/08/22 11:32:10;;;;;;;4.83;3.53;;;31.10;38.30;;;;;;5003241;28;20519;-66
2022/08/22 11:34:48;;;;;;;4.43;3.27;;;31.20;39.10;;;;;;5008161;28;20502;-66
2022/08/22 11:37:28;;;;;;;5.43;3.27;;;31.50;38.60;;;;;;4999461;28;20432;-66
2022/08/22 11:40:06;;;;;;;7.40;4.47;;;31.50;38.30;;;;;;5002229;28;20564;-66
2022/08/22 11:42:41;;;;;;;8.00;3.40;;;31.70;38.00;;;;;;5002569;28;20439;-66
2022/08/22 11:45:13;;;;;;;4.57;3.57;;;31.70;37.20;;;;;;5009526;28;20451;-68
2022/08/22 11:47:46;;;;;;;4.50;3.30;;;31.80;37.90;;;;;;5009041;28;20538;-66
2022/08/22 11:50:25;;;;;;;4.27;2.93;;;31.80;37.50;;;;;;5007114;28;20478;-66
2022/08/22 11:53:13;;;;;;;10.37;3.83;;;32.00;35.60;;;;;;5010588;28;20524;-66
2022/08/22 11:55:46;;;;;;;6.10;4.60;;;32.00;36.50;;;;;;5000749;28;20525;-66
2022/08/22 11:58:34;;;;;;;7.43;3.67;;;32.20;35.80;;;;;;5010531;28;20568;-66
2022/08/22 12:01:05;;;;;;;4.73;3.37;;;32.30;36.30;;;;;;5005945;28;20613;-66
2022/08/22 12:03:46;;;;;;;3.63;2.67;;;32.50;33.80;;;;;;4992949;28;20526;-66
2022/08/22 12:06:31;;;;;;;5.37;4.10;;;32.50;34.70;;;;;;4992930;28;20940;-66
2022/08/22 12:09:18;;;;;;;4.67;3.57;;;32.60;34.40;;;;;;4990544;28;21807;-66
2022/08/22 12:12:10;;;;;;;14.43;4.87;;;32.60;35.50;;;;;;4992140;28;20479;-66
2022/08/22 12:14:41;;;;;;;7.70;3.67;;;32.50;34.40;;;;;;4991601;28;20432;-66
2022/08/22 12:17:27;;;;;;;5.20;3.40;;;32.40;34.30;;;;;;4996046;28;20917;-67
2022/08/22 12:20:09;;;;;;;4.30;2.87;;;32.40;34.00;;;;;;4994880;28;20571;-66
2022/08/22 12:22:56;;;;;;;6.73;3.27;;;32.20;35.10;;;;;;4994332;28;20498;-67
2022/08/22 12:25:41;;;;;;;6.53;3.23;;;32.10;34.10;;;;;;4996073;28;20483;-66
2022/08/22 12:28:23;;;;;;;7.77;3.00;;;32.00;33.90;;;;;;4995394;28;20440;-66
2022/08/22 12:31:04;;;;;;;4.10;2.63;;;32.00;32.90;;;;;;4995794;28;20435;-66
2022/08/22 12:33:48;;;;;;;5.10;3.70;;;32.00;34.10;;;;;;4994362;28;20470;-66
2022/08/22 12:36:49;;;;;;;3.57;2.43;;;31.90;33.20;;;;;;4996553;28;20852;-66
2022/08/22 12:39:36;;;;;;;3.77;3.00;;;31.80;33.60;;;;;;4996558;28;20576;-66
2022/08/22 12:42:21;;;;;;;3.90;2.60;;;31.80;33.90;;;;;;4992693;28;20452;-66
2022/08/22 12:45:09;;;;;;;4.43;2.43;;;31.70;34.20;;;;;;4997117;28;20497;-66
2022/08/22 12:47:56;;;;;;;4.50;2.70;;;31.50;34.40;;;;;;4996856;28;20954;-66
2022/08/22 12:50:38;;;;;;;6.20;4.13;;;31.40;34.50;;;;;;4996147;28;20458;-66
2022/08/22 12:53:40;;;;;;;4.30;2.60;;;31.30;35.50;;;;;;5000046;28;20501;-65
2022/08/22 12:56:22;;;;;;;5.90;2.60;;;31.20;34.40;;;;;;4991396;28;20505;-66
2022/08/22 12:59:12;;;;;;;4.40;2.97;;;31.20;35.20;;;;;;4996605;28;20491;-66
2022/08/22 13:01:43;;;;;;;4.00;2.50;;;31.20;34.50;;;;;;5000529;28;20505;-67
2022/08/22 13:04:14;;;;;;;5.03;2.70;;;31.10;33.40;;;;;;5001757;28;20527;-66
2022/08/22 13:07:01;;;;;;;3.90;2.53;;;31.00;33.70;;;;;;5003671;28;20644;-66
2022/08/22 13:09:31;;;;;;;5.30;2.50;;;30.90;33.80;;;;;;5001900;28;20509;-66
2022/08/22 13:12:04;;;;;;;7.03;2.83;;;30.80;34.10;;;;;;5001771;28;20495;-66
2022/08/22 13:14:34;;;;;;;4.20;2.53;;;30.60;34.40;;;;;;5004425;28;20448;-66
2022/08/22 13:17:05;;;;;;;4.33;2.57;;;30.60;34.50;;;;;;5002398;28;20895;-70
2022/08/22 13:19:37;;;;;;;5.20;2.70;;;30.50;34.60;;;;;;5003951;28;20533;-66
2022/08/22 13:22:09;;;;;;;4.53;2.50;;;30.50;34.70;;;;;;5006226;28;20479;-66
2022/08/22 13:24:40;;;;;;;4.37;2.77;;;30.50;35.30;;;;;;5005670;28;21072;-65
2022/08/22 13:27:14;;;;;;;3.63;2.60;;;30.40;34.50;;;;;;5004596;28;20436;-67
2022/08/22 13:29:46;;;;;;;3.30;2.10;;;30.30;35.50;;;;;;5002746;28;21472;-66
2022/08/22 13:32:22;;;;;;;5.90;3.07;;;30.20;35.40;;;;;;5005208;28;20534;-66
2022/08/22 13:34:53;;;;;;;5.17;3.10;;;30.10;35.20;;;;;;5002955;28;20488;-65
2022/08/22 13:37:25;;;;;;;3.60;1.87;;;30.00;34.90;;;;;;5001705;28;20514;-66
2022/08/22 13:39:59;;;;;;;6.20;2.60;;;30.00;34.60;;;;;;5001082;28;21055;-66
2022/08/22 13:42:29;;;;;;;4.03;2.33;;;30.00;35.70;;;;;;5002761;28;20474;-66
2022/08/22 13:45:00;;;;;;;5.80;2.40;;;29.90;34.70;;;;;;5005555;28;20912;-66
2022/08/22 13:47:29;;;;;;;3.80;2.00;;;29.90;34.40;;;;;;5005501;28;20442;-66
2022/08/22 13:50:06;;;;;;;3.20;2.13;;;29.70;35.00;;;;;;5002302;28;20474;-66